Pilot Boat 183 — FT7120 — position and weather

sailwx.info

Track history (hours):
 
Tides and Currents Weather Stations Pressure Air Temp Water Temp Dewpoint Dewpoint Depression Visibility Wind Speed Wind Dir Waves Ship Positions

Pilot Boat 183

Last reported at 2015-Jul-01 06:33 UTC. Time now 2015-Jul-01 06:37 UTC.
Position N 43°24' E 004°56'.

Length 16 m; draft 1 m.

Type: Pilot. MMSI: 227005760.

Date/timePositionNaut miles runAvg speedWind from/ knotsBaromVisibWave heightAir tempDewpointWater temp
2015-Jul-01 06:33N 43°24' E 004°56'2 0.4
2015-Jul-01 00:31N 43°24' E 004°59'0 0.0
2015-Jun-30 20:33N 43°24' E 004°59'2 2.1
2015-Jun-30 19:34N 43°22' E 004°59'2 1.1
2015-Jun-30 17:33N 43°24' E 004°59'0 0.0
2015-Jun-30 10:04N 43°24' E 004°59'0 0.2
2015-Jun-30 09:33N 43°24' E 004°59'0 0.0
2015-Jun-29 07:34N 43°24' E 004°59'0 0.0
2015-Jun-28 08:33N 43°24' E 004°59'  
2015-Jun-25 08:33N 43°24' E 004°59'1515.1
2015-Jun-25 07:33N 43°18' E 005°18'3 2.7
2015-Jun-25 06:33N 43°18' E 005°22'1 0.1
2015-Jun-24 11:33N 43°17' E 005°21'1 0.7
2015-Jun-24 10:04N 43°18' E 005°22'2 4.7
2015-Jun-24 09:34N 43°17' E 005°19'0 0.0
2015-Jun-24 08:33N 43°17' E 005°19'0 0.0
2015-Jun-24 07:33N 43°17' E 005°19'0 0.0
2015-Jun-24 06:33N 43°17' E 005°19'0 0.0
2015-Jun-24 05:33N 43°17' E 005°19'0 0.0
2015-Jun-24 04:33N 43°17' E 005°19'0 0.0
2015-Jun-24 03:34N 43°17' E 005°19'0 0.0
2015-Jun-24 02:33N 43°17' E 005°19'0 0.0
2015-Jun-24 01:34N 43°17' E 005°19'0 0.0
2015-Jun-24 00:31N 43°17' E 005°19'0 0.0
2015-Jun-23 23:33N 43°17' E 005°19'0 0.0
2015-Jun-23 22:33N 43°17' E 005°19'0 0.0
2015-Jun-23 21:34N 43°17' E 005°19'0 0.0
2015-Jun-23 20:34N 43°17' E 005°19'2 2.4
2015-Jun-23 19:33N 43°18' E 005°22'0 0.0
2015-Jun-23 19:06N 43°18' E 005°22'  
Track history (hours):
 
Tides and Currents Weather Stations Pressure Air Temp Water Temp Dewpoint Dewpoint Depression Visibility Wind Speed Wind Dir Waves Ship Positions

Pilot Boat 183

Last reported at 2015-Jul-01 06:33 UTC. Time now 2015-Jul-01 06:37 UTC.
Position N 43°24' E 004°56'.

Length 16 m; draft 1 m.

Type: Pilot. MMSI: 227005760.

Date/timePositionNaut miles runAvg speedWind from/ knotsBaromVisibWave heightAir tempDewpointWater temp
2015-Jul-01 06:33N 43°24' E 004°56'2 0.4
2015-Jul-01 00:31N 43°24' E 004°59'0 0.0
2015-Jun-30 20:33N 43°24' E 004°59'2 2.1
2015-Jun-30 19:34N 43°22' E 004°59'2 1.1
2015-Jun-30 17:33N 43°24' E 004°59'0 0.0
2015-Jun-30 10:04N 43°24' E 004°59'0 0.2
2015-Jun-30 09:33N 43°24' E 004°59'0 0.0
2015-Jun-29 07:34N 43°24' E 004°59'0 0.0
2015-Jun-28 08:33N 43°24' E 004°59'  
2015-Jun-25 08:33N 43°24' E 004°59'1515.1
2015-Jun-25 07:33N 43°18' E 005°18'3 2.7
2015-Jun-25 06:33N 43°18' E 005°22'1 0.1
2015-Jun-24 11:33N 43°17' E 005°21'1 0.7
2015-Jun-24 10:04N 43°18' E 005°22'2 4.7
2015-Jun-24 09:34N 43°17' E 005°19'0 0.0
2015-Jun-24 08:33N 43°17' E 005°19'0 0.0
2015-Jun-24 07:33N 43°17' E 005°19'0 0.0
2015-Jun-24 06:33N 43°17' E 005°19'0 0.0
2015-Jun-24 05:33N 43°17' E 005°19'0 0.0
2015-Jun-24 04:33N 43°17' E 005°19'0 0.0
2015-Jun-24 03:34N 43°17' E 005°19'0 0.0
2015-Jun-24 02:33N 43°17' E 005°19'0 0.0
2015-Jun-24 01:34N 43°17' E 005°19'0 0.0
2015-Jun-24 00:31N 43°17' E 005°19'0 0.0
2015-Jun-23 23:33N 43°17' E 005°19'0 0.0
2015-Jun-23 22:33N 43°17' E 005°19'0 0.0
2015-Jun-23 21:34N 43°17' E 005°19'0 0.0
2015-Jun-23 20:34N 43°17' E 005°19'2 2.4
2015-Jun-23 19:33N 43°18' E 005°22'0 0.0
2015-Jun-23 19:06N 43°18' E 005°22'  

Dump ship's entire track history